Time;durP1;ratioP1;P1;durP2;ratioP2;P2;SDS_P1;SDS_P2;PMS_P1;PMS_P2;Temp;Humidity;BMP_temperature;BMP_pressure;BME280_temperature;BME280_humidity;BME280_pressure;Samples;Min_cycle;Max_cycle;Signal;HPM_P1;HPM_P2
2023/06/01 00:00:35;;;;;;;9.98;5.00;;;;;;;13.08;61.00;96181.50;2099375;28;20376;-60
2023/06/01 00:01:37;;;;;;;9.45;5.35;;;;;;;13.07;61.98;96187.63;2098923;28;20368;-60
2023/06/01 00:02:38;;;;;;;8.68;4.55;;;;;;;13.02;62.17;96183.50;2099007;28;20068;-60
2023/06/01 00:03:39;;;;;;;11.23;5.28;;;;;;;13.02;61.54;96185.28;2099528;28;20125;-60
2023/06/01 00:04:41;;;;;;;10.07;5.22;;;;;;;13.01;61.97;96181.81;2098989;28;20498;-59
2023/06/01 00:05:42;;;;;;;9.48;4.60;;;;;;;13.00;61.54;96187.97;2099115;28;20063;-60
2023/06/01 00:06:43;;;;;;;8.73;5.10;;;;;;;12.99;61.88;96186.28;2099723;28;20067;-59
2023/06/01 00:07:44;;;;;;;9.13;5.43;;;;;;;12.99;61.92;96190.63;2099956;28;20142;-59
2023/06/01 00:08:45;;;;;;;11.32;5.55;;;;;;;12.97;62.21;96188.13;2100053;28;20052;-60
2023/06/01 00:09:46;;;;;;;9.82;5.07;;;;;;;12.89;62.34;96179.88;2098959;28;20052;-60
2023/06/01 00:10:48;;;;;;;7.38;4.60;;;;;;;12.97;61.91;96187.28;2098921;28;20057;-60
2023/06/01 00:11:49;;;;;;;9.20;4.85;;;;;;;13.02;62.60;96193.09;2099750;28;20376;-59
2023/06/01 00:12:50;;;;;;;8.52;4.60;;;;;;;13.02;62.35;96191.34;2099292;28;20052;-60
2023/06/01 00:13:52;;;;;;;9.30;4.68;;;;;;;13.05;61.89;96182.50;2099342;28;20064;-60
2023/06/01 00:14:53;;;;;;;9.38;5.10;;;;;;;13.03;61.98;96187.78;2098888;28;20044;-60
2023/06/01 00:15:54;;;;;;;9.98;5.30;;;;;;;13.00;62.00;96187.97;2098991;28;20057;-59
2023/06/01 00:16:56;;;;;;;9.23;5.40;;;;;;;12.98;61.80;96187.19;2098887;28;20056;-60
2023/06/01 00:17:57;;;;;;;14.75;4.88;;;;;;;12.99;62.22;96188.03;2099223;28;20396;-60
2023/06/01 00:19:00;;;;;;;9.48;4.90;;;;;;;13.05;62.19;96189.50;2099676;28;20039;-59
2023/06/01 00:20:06;;;;;;;9.68;5.25;;;;;;;13.11;62.12;96187.38;2099101;28;20075;-60
2023/06/01 00:21:07;;;;;;;7.85;4.90;;;;;;;13.11;61.61;96186.53;2098906;28;20056;-59
2023/06/01 00:22:08;;;;;;;9.63;5.10;;;;;;;13.12;61.61;96190.81;2099692;28;20043;-59
2023/06/01 00:23:10;;;;;;;9.07;5.20;;;;;;;13.02;62.01;96177.47;2099712;28;20457;-60
2023/06/01 00:24:11;;;;;;;7.93;4.60;;;;;;;13.15;61.76;96186.31;2098944;28;20344;-60
2023/06/01 00:25:12;;;;;;;8.40;4.57;;;;;;;13.14;61.49;96186.38;2099076;28;20052;-59
2023/06/01 00:26:13;;;;;;;9.57;5.13;;;;;;;13.11;61.54;96183.94;2099533;28;20048;-60
2023/06/01 00:27:16;;;;;;;11.98;5.25;;;;;;;13.10;61.69;96177.88;2099069;28;20060;-60
2023/06/01 00:28:17;;;;;;;9.25;5.20;;;;;;;13.11;61.68;96182.16;2098681;28;20052;-59
2023/06/01 00:29:18;;;;;;;8.75;5.10;;;;;;;13.07;61.89;96183.28;2099668;28;20388;-59
2023/06/01 00:30:19;;;;;;;9.45;5.47;;;;;;;13.03;62.46;96184.34;2099019;28;20048;-58
2023/06/01 00:31:20;;;;;;;10.30;5.15;;;;;;;12.97;62.64;96180.31;2098637;28;20056;-59
2023/06/01 00:32:21;;;;;;;7.43;4.60;;;;;;;12.94;62.53;96177.03;2090911;28;20045;-60
2023/06/01 00:33:23;;;;;;;8.60;5.30;;;;;;;12.91;62.50;96183.25;2082492;28;20057;-60
2023/06/01 00:34:24;;;;;;;9.18;5.13;;;;;;;12.79;62.43;96171.69;2082117;28;20390;-60
2023/06/01 00:35:25;;;;;;;9.00;5.30;;;;;;;12.85;62.41;96186.16;2081506;28;20053;-60
2023/06/01 00:36:26;;;;;;;8.95;4.97;;;;;;;12.82;62.54;96188.94;2090602;28;20045;-60
2023/06/01 00:37:28;;;;;;;11.50;5.55;;;;;;;12.78;62.73;96188.28;2090452;28;20353;-59
2023/06/01 00:38:29;;;;;;;11.57;4.72;;;;;;;12.75;63.01;96188.44;2090108;28;20056;-60
2023/06/01 00:39:30;;;;;;;8.82;5.25;;;;;;;12.72;63.45;96187.72;2098816;28;20061;-60
2023/06/01 00:40:31;;;;;;;11.32;5.50;;;;;;;12.68;63.62;96187.06;2098582;28;20373;-60
2023/06/01 00:41:33;;;;;;;8.23;5.05;;;;;;;12.67;63.82;96192.34;2098721;28;20055;-60
2023/06/01 00:42:34;;;;;;;10.52;5.05;;;;;;;12.66;63.53;96190.66;2089596;28;20049;-59
2023/06/01 00:43:35;;;;;;;11.63;5.25;;;;;;;12.61;63.76;96190.91;2082363;28;20049;-60
2023/06/01 00:44:36;;;;;;;9.20;4.95;;;;;;;12.58;63.80;96184.09;2090543;28;20041;-60
2023/06/01 00:45:37;;;;;;;9.25;4.93;;;;;;;12.60;63.85;96186.63;2090141;28;20052;-60
2023/06/01 00:46:38;;;;;;;8.77;5.22;;;;;;;12.56;64.12;96185.09;2090025;28;20060;-59
2023/06/01 00:47:41;;;;;;;12.40;5.70;;;;;;;12.51;64.04;96182.75;2073959;28;20038;-60
2023/06/01 00:48:42;;;;;;;11.50;5.40;;;;;;;12.57;64.21;96189.41;2066400;28;20046;-60
2023/06/01 00:49:44;;;;;;;10.55;5.10;;;;;;;12.64;63.94;96185.53;2074345;28;20050;-60
2023/06/01 00:50:45;;;;;;;12.38;5.30;;;;;;;12.62;64.11;96186.56;2089816;28;20053;-59
2023/06/01 00:51:46;;;;;;;8.13;4.85;;;;;;;12.57;64.37;96178.97;2089957;28;20400;-60
2023/06/01 00:52:48;;;;;;;8.88;5.53;;;;;;;12.53;64.51;96178.28;2081800;28;20053;-60
2023/06/01 00:53:49;;;;;;;8.48;5.20;;;;;;;12.51;64.50;96179.28;2073951;28;20074;-59
2023/06/01 00:54:50;;;;;;;10.48;5.32;;;;;;;12.52;64.12;96176.59;2073793;28;20449;-60
2023/06/01 00:55:51;;;;;;;9.77;5.75;;;;;;;12.50;64.59;96178.44;2073599;28;20050;-60
2023/06/01 00:56:53;;;;;;;9.23;5.40;;;;;;;12.45;64.39;96171.78;2090661;28;20053;-60
2023/06/01 00:57:54;;;;;;;10.10;5.18;;;;;;;12.50;64.60;96186.25;2081865;28;20430;-59
2023/06/01 00:58:56;;;;;;;9.00;5.18;;;;;;;12.49;64.90;96179.38;2074081;28;20058;-59
2023/06/01 00:59:57;;;;;;;9.60;5.05;;;;;;;12.50;64.73;96177.59;2090321;28;20489;-60
2023/06/01 01:00:58;;;;;;;9.38;5.18;;;;;;;12.50;64.79;96178.44;2090497;28;20044;-60
2023/06/01 01:02:00;;;;;;;12.32;5.65;;;;;;;12.52;64.92;96179.19;2074028;28;20046;-60
2023/06/01 01:03:07;;;;;;;11.32;5.63;;;;;;;12.55;64.22;96179.03;2082445;28;20038;-60
2023/06/01 01:04:10;;;;;;;9.52;5.20;;;;;;;12.49;64.85;96176.75;2090145;28;20052;-59
2023/06/01 01:05:11;;;;;;;10.50;5.47;;;;;;;12.45;64.97;96180.44;2082745;28;20057;-59
2023/06/01 01:06:35;;;;;;;12.10;6.03;;;;;;;12.46;64.66;96176.94;2081934;28;20629;-59
2023/06/01 01:07:47;;;;;;;9.75;5.13;;;;;;;12.51;64.81;96182.75;2093727;28;20063;-59
2023/06/01 01:09:07;;;;;;;9.23;5.20;;;;;;;12.34;64.61;96161.91;2090280;28;20045;-60
2023/06/01 01:10:13;;;;;;;12.77;5.47;;;;;;;12.44;65.43;96178.75;2092649;28;20045;-60
2023/06/01 01:11:25;;;;;;;12.23;6.15;;;;;;;12.44;65.36;96177.94;2089150;28;20048;-59
2023/06/01 01:12:47;;;;;;;9.65;5.28;;;;;;;12.38;65.90;96179.09;2074898;28;20056;-59
2023/06/01 01:14:04;;;;;;;12.23;5.60;;;;;;;12.38;65.69;96180.84;2063462;28;20042;-59
2023/06/01 01:15:14;;;;;;;10.77;5.68;;;;;;;12.34;66.00;96175.78;2066164;28;20099;-59
2023/06/01 01:16:45;;;;;;;8.40;5.28;;;;;;;12.30;65.89;96179.47;2074918;28;20481;-59
2023/06/01 01:17:46;;;;;;;10.68;5.63;;;;;;;12.24;66.48;96177.19;2074018;28;20049;-59
2023/06/01 01:18:54;;;;;;;12.55;5.38;;;;;;;12.20;66.16;96180.84;2084680;28;20176;-59
2023/06/01 01:20:12;;;;;;;8.77;5.28;;;;;;;12.16;66.31;96178.47;2099282;28;20048;-60
2023/06/01 01:21:28;;;;;;;;;;;;;;;12.15;66.71;96177.63;2090176;28;20056;-60
2023/06/01 01:22:38;;;;;;;10.60;5.20;;;;;;;12.12;66.76;96177.81;2083795;28;19913;-59
2023/06/01 01:23:41;;;;;;;10.07;5.50;;;;;;;12.07;67.01;96180.63;2085281;28;20056;-59
2023/06/01 01:25:00;;;;;;;10.52;5.65;;;;;;;12.06;67.53;96183.31;2081256;28;20046;-59
2023/06/01 01:26:09;;;;;;;11.40;5.80;;;;;;;12.04;67.53;96179.94;2083815;28;20104;-59
2023/06/01 01:27:15;;;;;;;9.27;4.72;;;;;;;12.01;67.27;96183.53;2083019;28;20420;-60
2023/06/01 01:28:37;;;;;;;12.50;5.43;;;;;;;11.99;67.41;96182.78;2074241;28;20042;-60
2023/06/01 01:29:38;;;;;;;10.10;5.88;;;;;;;11.95;67.14;96178.66;2079453;28;20049;-59
2023/06/01 01:30:41;;;;;;;10.15;5.13;;;;;;;11.94;67.13;96182.16;2073310;28;20053;-59
2023/06/01 01:31:42;;;;;;;10.98;5.50;;;;;;;11.89;67.83;96171.13;2074294;28;20092;-60
2023/06/01 01:32:43;;;;;;;11.13;5.20;;;;;;;11.95;67.74;96176.06;2073982;28;20139;-60
2023/06/01 01:33:45;;;;;;;11.20;5.78;;;;;;;11.83;67.48;96161.00;2081853;28;20056;-59
2023/06/01 01:34:47;;;;;;;8.60;5.32;;;;;;;11.89;67.80;96174.59;2090436;28;20056;-59
2023/06/01 01:35:49;;;;;;;10.65;5.60;;;;;;;11.94;67.71;96179.56;2089642;28;20484;-59
2023/06/01 01:36:50;;;;;;;10.93;5.53;;;;;;;11.90;67.86;96172.84;2081190;28;20061;-60
2023/06/01 01:37:54;;;;;;;7.68;5.13;;;;;;;11.75;67.46;96161.38;2081613;28;20061;-59
2023/06/01 01:38:59;;;;;;;9.15;5.82;;;;;;;11.82;68.37;96174.94;2082069;28;20393;-60
2023/06/01 01:40:00;;;;;;;10.65;5.60;;;;;;;11.81;68.29;96178.44;2089777;28;20056;-59
2023/06/01 01:41:02;;;;;;;11.07;6.00;;;;;;;11.81;68.00;96174.06;2089471;28;20064;-59
2023/06/01 01:42:03;;;;;;;10.05;5.68;;;;;;;11.78;67.85;96174.22;2089526;28;20135;-59
2023/06/01 01:43:04;;;;;;;13.00;5.60;;;;;;;11.79;68.08;96175.09;2089979;28;20044;-60
2023/06/01 01:44:05;;;;;;;10.90;5.68;;;;;;;11.72;68.73;96153.72;2073965;28;20058;-60
2023/06/01 01:45:08;;;;;;;9.88;5.57;;;;;;;11.66;68.16;96157.47;2073225;28;20425;-59
2023/06/01 01:46:30;;;;;;;9.73;5.40;;;;;;;11.63;68.91;96156.78;2090053;28;20037;-60
2023/06/01 01:47:33;;;;;;;10.90;5.57;;;;;;;11.62;68.67;96155.94;2081128;28;20057;-60
2023/06/01 01:48:41;;;;;;;10.05;5.88;;;;;;;11.69;68.58;96175.53;2073941;28;20053;-60
2023/06/01 01:49:44;;;;;;;9.23;5.47;;;;;;;11.57;68.88;96155.31;2083287;28;20382;-60
2023/06/01 01:50:52;;;;;;;9.75;5.50;;;;;;;11.64;68.65;96166.28;2082326;28;20102;-60
2023/06/01 01:52:16;;;;;;;12.23;5.90;;;;;;;11.61;69.06;96164.66;2082786;28;20044;-59
2023/06/01 01:53:17;;;;;;;12.48;5.68;;;;;;;11.61;68.85;96171.63;2077137;28;20084;-59
2023/06/01 01:54:18;;;;;;;9.68;5.80;;;;;;;11.56;69.30;96166.63;2076007;28;20054;-60
2023/06/01 01:55:23;;;;;;;9.82;5.32;;;;;;;11.44;69.04;96149.00;2081867;28;20056;-60
2023/06/01 01:56:25;;;;;;;11.15;5.43;;;;;;;11.54;69.18;96175.44;2081584;28;20057;-59
2023/06/01 01:57:27;;;;;;;11.55;5.63;;;;;;;11.52;69.02;96167.72;2073494;28;20390;-60
2023/06/01 01:58:28;;;;;;;10.73;5.78;;;;;;;11.47;69.50;96169.69;2072572;28;20050;-59
2023/06/01 01:59:29;;;;;;;11.82;6.13;;;;;;;11.48;69.24;96167.00;2073523;28;20065;-59
2023/06/01 02:00:31;;;;;;;9.30;5.25;;;;;;;11.45;69.35;96164.56;2065506;28;20506;-60
2023/06/01 02:01:32;;;;;;;10.10;5.68;;;;;;;11.42;69.47;96166.47;2073647;28;20512;-59
2023/06/01 02:02:34;;;;;;;9.70;5.75;;;;;;;11.32;69.57;96157.41;2081363;28;20053;-59
2023/06/01 02:03:35;;;;;;;10.10;5.88;;;;;;;11.40;69.42;96168.28;2073815;28;20054;-59
2023/06/01 02:04:42;;;;;;;9.77;5.38;;;;;;;11.28;69.36;96154.13;2081459;28;20064;-60
2023/06/01 02:05:44;;;;;;;9.65;5.57;;;;;;;11.37;70.27;96171.03;2089541;28;20053;-59
2023/06/01 02:06:45;;;;;;;10.75;5.53;;;;;;;11.36;69.72;96166.75;2081217;28;20061;-58
2023/06/01 02:07:47;;;;;;;9.65;5.72;;;;;;;11.34;70.47;96169.44;2089143;28;20057;-59
2023/06/01 02:08:48;;;;;;;12.18;5.93;;;;;;;11.35;69.67;96160.69;2089201;28;20500;-59
2023/06/01 02:09:50;;;;;;;12.77;5.90;;;;;;;11.36;70.14;96166.75;2089496;28;20408;-59
2023/06/01 02:10:51;;;;;;;8.25;4.93;;;;;;;11.34;70.39;96168.59;2073346;28;20060;-59
2023/06/01 02:11:52;;;;;;;9.65;5.47;;;;;;;11.35;70.58;96170.25;2081024;28;20064;-60
2023/06/01 02:12:53;;;;;;;11.23;5.72;;;;;;;11.35;70.34;96170.25;2089667;28;20040;-59
2023/06/01 02:13:55;;;;;;;10.75;5.80;;;;;;;11.36;71.17;96172.81;2081563;28;20112;-59
2023/06/01 02:14:56;;;;;;;10.52;5.68;;;;;;;11.34;71.13;96166.81;2080428;28;20492;-59
2023/06/01 02:15:57;;;;;;;11.98;6.03;;;;;;;11.36;70.68;96162.41;2081687;28;20052;-59
2023/06/01 02:17:00;;;;;;;12.18;5.65;;;;;;;11.44;70.07;96169.81;2089362;28;20060;-59
2023/06/01 02:18:02;;;;;;;9.40;5.78;;;;;;;11.50;70.22;96164.34;2098383;28;20049;-59
2023/06/01 02:19:03;;;;;;;9.18;5.55;;;;;;;11.56;69.18;96166.63;2089355;28;20049;-59
2023/06/01 02:20:05;;;;;;;9.20;5.53;;;;;;;11.59;69.10;96168.25;2080547;28;20053;-59
2023/06/01 02:21:08;;;;;;;9.45;5.40;;;;;;;11.61;69.19;96161.22;2081220;28;20050;-59
2023/06/01 02:22:09;;;;;;;11.75;5.75;;;;;;;11.52;69.21;96159.91;2089899;28;20087;-59
2023/06/01 02:23:11;;;;;;;10.82;5.82;;;;;;;11.43;69.42;96155.13;2089449;28;20044;-59
2023/06/01 02:24:12;;;;;;;14.65;6.55;;;;;;;11.49;69.14;96167.84;2081074;28;20049;-59
2023/06/01 02:25:13;;;;;;;10.23;5.80;;;;;;;11.48;69.77;96166.16;2089127;28;20449;-60
2023/06/01 02:26:16;;;;;;;11.35;6.13;;;;;;;11.45;69.98;96161.94;2089358;28;20057;-59
2023/06/01 02:27:17;;;;;;;9.40;5.97;;;;;;;11.42;69.62;96167.31;2097906;28;20052;-59
2023/06/01 02:28:18;;;;;;;10.15;5.78;;;;;;;11.45;69.33;96163.72;2098368;28;20480;-59
2023/06/01 02:29:21;;;;;;;9.88;6.13;;;;;;;11.43;69.16;96162.94;2097912;28;20061;-59
2023/06/01 02:30:22;;;;;;;12.52;6.07;;;;;;;11.39;69.73;96166.63;2089148;28;20053;-59
2023/06/01 02:31:24;;;;;;;10.20;6.30;;;;;;;11.37;69.71;96160.66;2089038;28;20060;-59
2023/06/01 02:32:26;;;;;;;11.13;5.93;;;;;;;11.36;70.44;96162.41;2088783;28;20056;-59
2023/06/01 02:33:28;;;;;;;10.60;5.57;;;;;;;11.32;70.48;96160.00;2081828;28;20049;-59
2023/06/01 02:34:30;;;;;;;15.25;5.75;;;;;;;11.29;70.45;96162.75;2081402;28;20056;-60
2023/06/01 02:35:31;;;;;;;9.93;5.50;;;;;;;11.25;70.55;96157.72;2080623;28;20080;-59
2023/06/01 02:36:32;;;;;;;8.35;5.55;;;;;;;11.20;70.78;96153.63;2088926;28;20052;-60
2023/06/01 02:37:33;;;;;;;10.52;5.60;;;;;;;11.23;70.22;96156.94;2080792;28;20061;-59
2023/06/01 02:38:35;;;;;;;10.75;5.45;;;;;;;11.24;70.63;96157.78;2081261;28;20401;-59
2023/06/01 02:39:36;;;;;;;9.60;5.35;;;;;;;11.23;71.22;96167.34;2080972;28;20508;-59
2023/06/01 02:40:37;;;;;;;8.95;5.60;;;;;;;11.23;71.29;96169.09;2080888;28;20057;-59
2023/06/01 02:41:39;;;;;;;11.05;5.70;;;;;;;11.22;70.53;96167.41;2081163;28;20094;-59
2023/06/01 02:42:40;;;;;;;12.07;6.10;;;;;;;11.20;70.62;96167.50;2081328;28;20049;-59
2023/06/01 02:43:41;;;;;;;9.93;5.55;;;;;;;11.18;70.82;96163.28;2081189;28;20434;-59
2023/06/01 02:44:42;;;;;;;10.38;5.78;;;;;;;11.22;70.63;96168.22;2081344;28;20632;-59
2023/06/01 02:45:43;;;;;;;9.07;5.30;;;;;;;11.22;70.66;96164.78;2081042;28;20057;-59
2023/06/01 02:46:44;;;;;;;7.72;5.10;;;;;;;11.25;70.81;96164.66;2080522;28;20068;-59
2023/06/01 02:47:46;;;;;;;12.18;5.95;;;;;;;11.29;70.52;96157.56;2080506;28;20056;-59
2023/06/01 02:48:47;;;;;;;14.30;6.40;;;;;;;11.29;70.74;96160.16;2089244;28;20064;-59
2023/06/01 02:49:48;;;;;;;10.82;5.47;;;;;;;11.30;71.12;96162.69;2088948;28;20064;-59
2023/06/01 02:50:49;;;;;;;9.25;5.20;;;;;;;11.29;69.79;96161.00;2089218;28;20397;-59
2023/06/01 02:51:50;;;;;;;11.50;6.03;;;;;;;11.29;70.60;96158.41;2098413;28;20045;-59
2023/06/01 02:52:57;;;;;;;8.85;5.20;;;;;;;11.32;70.85;96163.44;2088977;28;20056;-59
2023/06/01 02:53:59;;;;;;;11.07;5.28;;;;;;;11.34;70.40;96158.19;2089464;28;20048;-59
2023/06/01 02:55:00;;;;;;;8.38;5.45;;;;;;;11.27;70.72;96166.25;2088886;28;20072;-59
2023/06/01 02:56:39;;;;;;;10.07;5.80;;;;;;;11.20;70.29;96162.28;2061572;28;20050;-59
2023/06/01 02:58:01;;;;;;;15.50;6.57;;;;;;;11.13;71.27;96165.25;2061277;28;20050;-59
2023/06/01 02:59:05;;;;;;;11.40;5.68;;;;;;;11.10;71.53;96166.22;2064288;28;20069;-59
2023/06/01 03:00:15;;;;;;;14.63;6.45;;;;;;;11.07;70.85;96161.16;2064622;28;20102;-59
2023/06/01 03:01:17;;;;;;;14.10;6.07;;;;;;;11.04;71.62;96166.53;2056816;28;20054;-59
2023/06/01 03:02:18;;;;;;;8.88;5.32;;;;;;;11.01;71.84;96156.25;2063454;28;20413;-59
2023/06/01 03:03:20;;;;;;;9.45;5.65;;;;;;;11.02;71.82;96161.38;2081097;28;20041;-59
2023/06/01 03:04:21;;;;;;;10.10;5.53;;;;;;;11.01;71.91;96157.09;2080422;28;20053;-59
2023/06/01 03:05:23;;;;;;;9.20;5.90;;;;;;;10.99;71.11;96158.09;2080634;28;20049;-59
2023/06/01 03:06:45;;;;;;;11.13;6.13;;;;;;;10.98;71.36;96158.97;2092128;28;20459;-59
2023/06/01 03:07:55;;;;;;;12.02;6.60;;;;;;;10.93;71.21;96158.34;2097791;28;20495;-59
2023/06/01 03:09:00;;;;;;;10.80;6.10;;;;;;;10.90;72.12;96150.69;2088785;28;20056;-59
2023/06/01 03:10:20;;;;;;;11.40;5.95;;;;;;;10.85;71.76;96153.50;2092024;28;20431;-59
2023/06/01 03:11:32;;;;;;;13.20;6.00;;;;;;;10.73;72.41;96141.94;2088980;28;20481;-60
2023/06/01 03:12:33;;;;;;;10.18;5.75;;;;;;;10.77;72.58;96151.28;2081282;28;20049;-59
2023/06/01 03:13:34;;;;;;;12.88;5.60;;;;;;;10.73;72.66;96152.31;2088768;28;20056;-59
2023/06/01 03:14:36;;;;;;;12.68;5.95;;;;;;;10.67;73.07;96151.75;2080662;28;20049;-59
2023/06/01 03:15:37;;;;;;;10.77;6.50;;;;;;;10.67;72.70;96150.00;2088542;28;20049;-59
2023/06/01 03:16:39;;;;;;;13.15;6.18;;;;;;;10.67;73.81;96151.75;2080764;28;20511;-59
2023/06/01 03:17:48;;;;;;;10.10;6.60;;;;;;;10.58;73.40;96138.28;2088585;28;20060;-59
2023/06/01 03:18:50;;;;;;;9.85;6.38;;;;;;;10.68;73.82;96154.28;2088698;28;20064;-59
2023/06/01 03:19:51;;;;;;;10.10;6.18;;;;;;;10.58;74.55;96142.59;2081060;28;20049;-60
2023/06/01 03:20:56;;;;;;;14.35;6.70;;;;;;;10.62;74.47;96143.34;2081613;28;20041;-59
2023/06/01 03:21:58;;;;;;;13.25;6.63;;;;;;;10.63;75.10;96153.63;2080412;28;20046;-59
2023/06/01 03:22:59;;;;;;;11.07;6.10;;;;;;;10.62;74.65;96148.53;2089010;28;20049;-59
2023/06/01 03:24:00;;;;;;;12.30;6.63;;;;;;;10.51;75.11;96136.88;2088819;28;20060;-59
2023/06/01 03:25:06;;;;;;;10.73;6.05;;;;;;;10.64;74.52;96150.16;2080204;28;20045;-59
2023/06/01 03:26:08;;;;;;;9.30;5.65;;;;;;;10.64;74.66;96152.75;2081252;28;20164;-59
2023/06/01 03:27:09;;;;;;;13.05;6.45;;;;;;;10.64;74.48;96151.88;2080903;28;20049;-59
2023/06/01 03:28:13;;;;;;;10.55;5.80;;;;;;;10.64;74.46;96152.75;2081490;28;20034;-59
2023/06/01 03:29:16;;;;;;;13.70;6.38;;;;;;;10.62;74.82;96151.97;2080506;28;20049;-59
2023/06/01 03:30:18;;;;;;;12.48;6.20;;;;;;;10.59;74.26;96162.50;2081002;28;20424;-59
2023/06/01 03:31:19;;;;;;;10.05;6.55;;;;;;;10.58;75.11;96153.88;2081165;28;20072;-59
2023/06/01 03:32:21;;;;;;;10.73;6.07;;;;;;;10.56;74.38;96165.22;2080662;28;20413;-59
2023/06/01 03:33:24;;;;;;;10.70;6.45;;;;;;;10.45;74.88;96150.13;2081213;28;20068;-59
2023/06/01 03:34:27;;;;;;;13.65;6.30;;;;;;;10.54;74.50;96161.84;2088134;28;20060;-59
2023/06/01 03:35:28;;;;;;;10.80;5.90;;;;;;;10.52;75.20;96161.06;2080466;28;20418;-59
2023/06/01 03:36:29;;;;;;;10.20;6.22;;;;;;;10.49;74.95;96154.25;2080882;28;20045;-59
2023/06/01 03:37:30;;;;;;;12.90;6.53;;;;;;;10.48;75.83;96164.72;2080325;28;20401;-59
2023/06/01 03:38:32;;;;;;;11.63;6.72;;;;;;;10.47;75.59;96165.63;2088656;28;20463;-59
2023/06/01 03:39:34;;;;;;;10.75;6.72;;;;;;;10.47;75.47;96166.47;2072701;28;20049;-59
2023/06/01 03:40:36;;;;;;;10.75;6.30;;;;;;;10.47;76.00;96165.63;2080485;28;20054;-59
2023/06/01 03:41:37;;;;;;;12.82;6.45;;;;;;;10.41;75.52;96155.50;2088506;28;20052;-59
2023/06/01 03:42:46;;;;;;;10.70;6.60;;;;;;;10.47;75.50;96166.47;2080335;28;20057;-59
2023/06/01 03:43:47;;;;;;;9.30;6.45;;;;;;;10.46;76.35;96164.78;2082001;28;20049;-59
2023/06/01 03:44:48;;;;;;;9.93;5.50;;;;;;;10.46;75.75;96169.97;2080854;28;20049;-59
2023/06/01 03:45:49;;;;;;;11.32;6.07;;;;;;;10.45;75.63;96167.44;2080364;28;20057;-59
2023/06/01 03:46:50;;;;;;;12.18;6.40;;;;;;;10.46;75.85;96164.78;2080410;28;20064;-59
2023/06/01 03:47:51;;;;;;;11.50;6.40;;;;;;;10.49;75.88;96169.00;2080990;28;20527;-59
2023/06/01 03:48:53;;;;;;;13.70;7.30;;;;;;;10.49;76.03;96171.59;2088646;28;20083;-58
2023/06/01 03:49:54;;;;;;;11.95;6.78;;;;;;;10.48;76.06;96162.97;2080246;28;20064;-58
2023/06/01 03:50:55;;;;;;;10.85;6.15;;;;;;;10.50;77.04;96168.06;2080647;28;20072;-57
2023/06/01 03:51:57;;;;;;;9.68;6.25;;;;;;;10.53;76.51;96171.41;2072260;28;20050;-57
2023/06/01 03:52:58;;;;;;;11.60;6.72;;;;;;;10.53;76.57;96167.94;2080784;28;20044;-57
2023/06/01 03:53:59;;;;;;;14.38;6.53;;;;;;;10.54;76.74;96172.25;2088603;28;20049;-57
2023/06/01 03:55:02;;;;;;;15.20;7.13;;;;;;;10.55;76.31;96166.97;2080782;28;20060;-57
2023/06/01 03:56:25;;;;;;;9.55;6.22;;;;;;;10.59;76.63;96168.53;2090588;28;20048;-57
2023/06/01 03:57:28;;;;;;;12.05;6.50;;;;;;;10.63;76.87;96173.56;2088396;28;20049;-57
2023/06/01 03:58:30;;;;;;;13.55;6.95;;;;;;;10.54;77.11;96148.88;2080203;28;20184;-57
2023/06/01 03:59:31;;;;;;;10.90;5.93;;;;;;;10.68;77.27;96169.84;2080303;28;20061;-57
2023/06/01 04:00:33;;;;;;;11.32;6.40;;;;;;;10.70;76.45;96168.03;2080883;28;20056;-57
2023/06/01 04:01:39;;;;;;;11.98;6.70;;;;;;;10.74;76.56;96163.53;2089011;28;20049;-57
2023/06/01 04:02:40;;;;;;;10.90;7.10;;;;;;;10.77;76.76;96169.47;2081089;28;20065;-57
2023/06/01 04:03:43;;;;;;;12.40;6.50;;;;;;;10.81;76.34;96165.78;2088542;28;20053;-57
2023/06/01 04:04:47;;;;;;;16.20;7.43;;;;;;;10.87;76.71;96166.44;2089369;28;20060;-57
2023/06/01 04:05:50;;;;;;;13.07;6.80;;;;;;;10.91;75.75;96173.19;2088383;28;20504;-57
2023/06/01 04:06:51;;;;;;;10.73;6.93;;;;;;;10.86;76.02;96157.81;2089181;28;20047;-57
2023/06/01 04:07:54;;;;;;;13.25;6.70;;;;;;;10.94;76.38;96171.28;2080899;28;20449;-57
2023/06/01 04:08:55;;;;;;;11.63;5.90;;;;;;;10.98;76.16;96169.38;2080325;28;20053;-57
2023/06/01 04:09:57;;;;;;;12.57;6.53;;;;;;;11.00;75.95;96176.19;2080606;28;20389;-57
2023/06/01 04:10:58;;;;;;;8.32;5.88;;;;;;;11.04;76.03;96172.56;2089406;28;20033;-58
2023/06/01 04:11:59;;;;;;;13.32;6.85;;;;;;;10.99;75.90;96160.69;2080600;28;20050;-58
2023/06/01 04:13:00;;;;;;;11.77;6.53;;;;;;;11.01;75.59;96154.50;2080462;28;20057;-57
2023/06/01 04:14:03;;;;;;;10.27;6.28;;;;;;;11.14;74.84;96169.50;2088613;28;20408;-57
2023/06/01 04:15:06;;;;;;;13.23;6.55;;;;;;;11.19;73.98;96175.34;2088848;28;20045;-57
2023/06/01 04:16:07;;;;;;;9.15;6.20;;;;;;;11.23;74.10;96169.94;2083627;28;20351;-57
2023/06/01 04:17:09;;;;;;;9.95;5.95;;;;;;;11.25;73.21;96162.91;2080484;28;20064;-57
2023/06/01 04:18:12;;;;;;;12.40;6.22;;;;;;;11.26;72.96;96161.16;2080683;28;20077;-57
2023/06/01 04:19:25;;;;;;;9.63;5.80;;;;;;;11.37;73.23;96166.69;2082762;28;20481;-57
2023/06/01 04:20:34;;;;;;;9.95;5.88;;;;;;;11.45;72.90;96167.16;2081016;28;20104;-57
2023/06/01 04:21:36;;;;;;;11.13;6.55;;;;;;;11.54;73.34;96171.06;2088348;28;20060;-57
2023/06/01 04:22:38;;;;;;;11.32;6.40;;;;;;;11.58;73.39;96171.78;2080989;28;20401;-57
2023/06/01 04:23:42;;;;;;;11.60;6.03;;;;;;;11.61;73.04;96176.81;2080563;28;20057;-57
2023/06/01 04:24:43;;;;;;;9.77;6.68;;;;;;;11.55;72.72;96154.56;2080730;28;20049;-58
2023/06/01 04:25:45;;;;;;;13.00;6.22;;;;;;;11.73;72.37;96183.19;2081075;28;20058;-58
2023/06/01 04:26:49;;;;;;;12.30;6.60;;;;;;;11.76;71.96;96185.63;2088467;28;20447;-57
2023/06/01 04:27:54;;;;;;;11.55;6.68;;;;;;;11.79;71.72;96181.13;2088498;28;20056;-57
2023/06/01 04:28:56;;;;;;;11.07;5.97;;;;;;;11.87;71.24;96178.19;2088656;28;20064;-57
2023/06/01 04:29:58;;;;;;;16.95;6.65;;;;;;;11.94;70.61;96183.91;2080118;28;20045;-57
2023/06/01 04:31:02;;;;;;;12.73;6.68;;;;;;;11.96;69.85;96176.88;2081087;28;20508;-57
2023/06/01 04:32:04;;;;;;;11.90;6.90;;;;;;;12.01;69.99;96180.94;2089289;28;20045;-58
2023/06/01 04:33:05;;;;;;;12.38;6.97;;;;;;;12.07;70.18;96185.84;2088872;28;20052;-57
2023/06/01 04:34:09;;;;;;;12.07;6.38;;;;;;;12.13;70.41;96188.16;2080408;28;20067;-57
2023/06/01 04:35:10;;;;;;;13.95;7.15;;;;;;;12.15;69.64;96182.84;2088862;28;20061;-57
2023/06/01 04:36:12;;;;;;;9.05;6.07;;;;;;;12.22;70.14;96191.22;2088214;28;20041;-57
2023/06/01 04:37:14;;;;;;;12.20;6.10;;;;;;;12.24;69.41;96192.81;2080937;28;20046;-57
2023/06/01 04:38:16;;;;;;;12.00;6.50;;;;;;;12.34;68.45;96185.34;2080413;28;20057;-57
2023/06/01 04:39:17;;;;;;;10.77;6.72;;;;;;;12.42;67.97;96187.56;2080091;28;20080;-57
2023/06/01 04:40:18;;;;;;;12.02;6.35;;;;;;;12.47;67.65;96193.38;2080716;28;20049;-57
2023/06/01 04:41:22;;;;;;;12.88;5.90;;;;;;;12.54;66.62;96192.16;2080457;28;20053;-57
2023/06/01 04:42:23;;;;;;;12.68;6.50;;;;;;;12.61;66.15;96196.13;2089324;28;20044;-58
2023/06/01 04:43:25;;;;;;;12.27;6.28;;;;;;;12.58;66.69;96181.47;2088375;28;20049;-58
2023/06/01 04:44:27;;;;;;;12.70;6.60;;;;;;;12.71;66.21;96189.50;2080903;28;20053;-57
2023/06/01 04:45:30;;;;;;;12.98;6.22;;;;;;;12.66;66.06;96178.47;2079934;28;20072;-57
2023/06/01 04:46:32;;;;;;;12.88;6.47;;;;;;;12.75;66.17;96170.19;2081500;28;20058;-58
2023/06/01 04:47:39;;;;;;;12.68;5.78;;;;;;;12.89;64.86;96190.31;2082396;28;20422;-58
2023/06/01 04:48:44;;;;;;;12.10;6.32;;;;;;;12.96;64.24;96178.63;2075320;28;20076;-57
2023/06/01 04:49:45;;;;;;;10.30;6.40;;;;;;;13.05;63.92;96184.28;2090227;28;20069;-57
2023/06/01 04:50:47;;;;;;;15.80;6.13;;;;;;;13.10;64.14;96190.91;2089587;28;20060;-57
2023/06/01 04:51:51;;;;;;;11.20;5.57;;;;;;;13.16;63.02;96187.13;2090416;28;20045;-57
2023/06/01 04:52:52;;;;;;;11.43;6.07;;;;;;;13.23;62.83;96191.94;2098497;28;20107;-57
2023/06/01 04:53:53;;;;;;;10.50;5.47;;;;;;;13.29;62.59;96196.00;2089870;28;20048;-57
2023/06/01 04:54:54;;;;;;;10.57;5.53;;;;;;;13.34;62.81;96191.38;2090038;28;20056;-57
2023/06/01 04:55:56;;;;;;;8.80;5.82;;;;;;;13.36;63.07;96189.50;2098720;28;20170;-57
2023/06/01 04:56:57;;;;;;;8.45;5.70;;;;;;;13.41;62.62;96182.28;2089798;28;20063;-57